Time;durP1;ratioP1;P1;durP2;ratioP2;P2;SDS_P1;SDS_P2;PMS_P1;PMS_P2;Temp;Humidity;BMP_temperature;BMP_pressure;BME280_temperature;BME280_humidity;BME280_pressure;Samples;Min_cycle;Max_cycle;Signal;HPM_P1;HPM_P2
2021/07/07 00:00:31;;;;;;;7.53;3.20;;;;;;;;;;5055471;28;20474;-81
2021/07/07 00:02:57;;;;;;;5.40;2.90;;;;;;;;;;5056598;28;20479;-82
2021/07/07 00:05:23;;;;;;;4.00;2.57;;;;;;;;;;5056701;28;20474;-79
2021/07/07 00:07:49;;;;;;;6.00;2.80;;;;;;;;;;5056863;28;20845;-79
2021/07/07 00:10:17;;;;;;;5.77;3.00;;;;;;;;;;5055241;28;20860;-80
2021/07/07 00:12:43;;;;;;;8.50;3.57;;;;;;;;;;5056477;28;20416;-80
2021/07/07 00:15:11;;;;;;;7.50;2.83;;;;;;;;;;5056294;28;20411;-78
2021/07/07 00:17:38;;;;;;;6.00;2.77;;;;;;;;;;5056226;28;20408;-78
2021/07/07 00:20:05;;;;;;;4.90;2.47;;;;;;;;;;5056287;28;20467;-80
2021/07/07 00:22:31;;;;;;;7.40;2.90;;;;;;;;;;5056184;28;20435;-82
2021/07/07 00:24:57;;;;;;;9.67;3.47;;;;;;;;;;5055781;28;20428;-79
2021/07/07 00:27:24;;;;;;;7.27;3.07;;;;;;;;;;5056399;28;20752;-81
2021/07/07 00:29:51;;;;;;;9.63;3.87;;;;;;;;;;5056314;28;20408;-79
2021/07/07 00:32:18;;;;;;;6.03;2.70;;;;;;;;;;5055990;28;20781;-80
2021/07/07 00:34:45;;;;;;;14.23;3.40;;;;;;;;;;5055478;28;20906;-79
2021/07/07 00:37:11;;;;;;;5.10;2.70;;;;;;;;;;5054748;28;20446;-82
2021/07/07 00:39:37;;;;;;;9.70;3.27;;;;;;;;;;5055899;28;20863;-81
2021/07/07 00:42:04;;;;;;;10.40;3.20;;;;;;;;;;5054502;28;20471;-80
2021/07/07 00:44:30;;;;;;;10.10;3.23;;;;;;;;;;5055393;28;20939;-81
2021/07/07 00:46:56;;;;;;;7.13;2.47;;;;;;;;;;5055898;28;20408;-81
2021/07/07 00:49:22;;;;;;;3.40;2.60;;;;;;;;;;5055312;28;20402;-79
2021/07/07 00:51:48;;;;;;;16.60;3.07;;;;;;;;;;5037838;28;20411;-82
2021/07/07 00:54:15;;;;;;;4.80;2.90;;;;;;;;;;5055104;28;20524;-80
2021/07/07 00:56:42;;;;;;;12.07;2.90;;;;;;;;;;5055427;28;20408;-78
2021/07/07 00:59:09;;;;;;;9.00;3.40;;;;;;;;;;5055168;28;20558;-79
2021/07/07 01:01:35;;;;;;;6.47;2.73;;;;;;;;;;5054195;28;20408;-83
2021/07/07 01:04:01;;;;;;;9.67;3.30;;;;;;;;;;5053585;28;20473;-83
2021/07/07 01:06:27;;;;;;;4.60;3.40;;;;;;;;;;5055198;28;20838;-78
2021/07/07 01:08:53;;;;;;;9.37;3.70;;;;;;;;;;5055113;28;20420;-83
2021/07/07 01:11:19;;;;;;;8.17;3.23;;;;;;;;;;5055162;28;20445;-80
2021/07/07 01:13:45;;;;;;;10.83;3.23;;;;;;;;;;5053516;28;20459;-81
2021/07/07 01:16:11;;;;;;;8.83;3.30;;;;;;;;;;5053577;28;20420;-81
2021/07/07 01:18:37;;;;;;;14.13;3.37;;;;;;;;;;5054800;28;20483;-78
2021/07/07 01:21:04;;;;;;;7.23;3.30;;;;;;;;;;5054518;28;20495;-83
2021/07/07 01:23:30;;;;;;;8.50;3.17;;;;;;;;;;5054346;28;20400;-83
2021/07/07 01:25:56;;;;;;;15.63;4.90;;;;;;;;;;5053403;28;20519;-81
2021/07/07 01:28:22;;;;;;;5.57;2.83;;;;;;;;;;5054641;28;21011;-79
2021/07/07 01:30:48;;;;;;;5.00;2.60;;;;;;;;;;5054366;28;20413;-80
2021/07/07 01:33:14;;;;;;;8.63;2.97;;;;;;;;;;5052745;28;20416;-81
2021/07/07 01:35:42;;;;;;;12.13;3.80;;;;;;;;;;5054449;28;20428;-81
2021/07/07 01:38:08;;;;;;;6.80;3.20;;;;;;;;;;5054332;28;20436;-80
2021/07/07 01:40:34;;;;;;;6.37;3.43;;;;;;;;;;5054460;28;20882;-83
2021/07/07 01:43:00;;;;;;;10.23;3.07;;;;;;;;;;5053937;28;20889;-80
2021/07/07 01:45:28;;;;;;;4.53;2.97;;;;;;;;;;5053149;28;20428;-82
2021/07/07 01:47:54;;;;;;;14.70;4.13;;;;;;;;;;5052979;28;20930;-81
2021/07/07 01:50:21;;;;;;;10.27;4.90;;;;;;;;;;5053593;28;20447;-80
2021/07/07 01:52:48;;;;;;;10.93;3.10;;;;;;;;;;5053077;28;20412;-81
2021/07/07 01:55:15;;;;;;;5.47;2.80;;;;;;;;;;5054404;28;20446;-79
2021/07/07 01:57:45;;;;;;;9.40;3.30;;;;;;;;;;5055534;28;20522;-82
2021/07/07 02:00:12;;;;;;;9.70;2.90;;;;;;;;;;5053666;28;20455;-78
2021/07/07 02:02:38;;;;;;;7.60;4.03;;;;;;;;;;5053044;28;20412;-80
2021/07/07 02:05:05;;;;;;;5.33;3.10;;;;;;;;;;5052880;28;20946;-82
2021/07/07 02:07:31;;;;;;;14.27;3.50;;;;;;;;;;5053896;28;20901;-81
2021/07/07 02:09:57;;;;;;;7.20;3.00;;;;;;;;;;5054503;28;20506;-81
2021/07/07 02:12:23;;;;;;;7.43;3.90;;;;;;;;;;5052987;28;20420;-82
2021/07/07 02:14:49;;;;;;;8.17;2.90;;;;;;;;;;5052534;28;20948;-78
2021/07/07 02:17:15;;;;;;;6.50;3.10;;;;;;;;;;5053760;28;20502;-79
2021/07/07 02:19:41;;;;;;;8.87;2.67;;;;;;;;;;5052597;28;20521;-80
2021/07/07 02:22:07;;;;;;;8.10;3.40;;;;;;;;;;5052980;28;20404;-83
2021/07/07 02:24:33;;;;;;;14.70;3.40;;;;;;;;;;5051913;28;20937;-80
2021/07/07 02:26:59;;;;;;;6.10;3.10;;;;;;;;;;5053581;28;20490;-80
2021/07/07 02:29:25;;;;;;;10.07;3.30;;;;;;;;;;5053268;28;20423;-82
2021/07/07 02:31:51;;;;;;;11.63;3.80;;;;;;;;;;5051917;28;20795;-80
2021/07/07 02:34:17;;;;;;;8.53;3.00;;;;;;;;;;5051819;28;20411;-81
2021/07/07 02:36:43;;;;;;;6.27;3.00;;;;;;;;;;5053454;28;20570;-80
2021/07/07 02:39:09;;;;;;;9.67;3.33;;;;;;;;;;5051972;28;20475;-79
2021/07/07 02:41:35;;;;;;;7.20;3.60;;;;;;;;;;5053539;28;20557;-80
2021/07/07 02:44:01;;;;;;;8.43;3.30;;;;;;;;;;5052082;28;20440;-79
2021/07/07 02:46:27;;;;;;;9.67;3.47;;;;;;;;;;5052050;28;20412;-81
2021/07/07 02:48:53;;;;;;;6.87;3.50;;;;;;;;;;5052169;28;20511;-78
2021/07/07 02:51:19;;;;;;;4.80;3.10;;;;;;;;;;5053111;28;20970;-79
2021/07/07 02:53:45;;;;;;;9.73;3.10;;;;;;;;;;5052409;28;20558;-79
2021/07/07 02:56:11;;;;;;;9.93;3.33;;;;;;;;;;5052027;28;20436;-80
2021/07/07 02:58:37;;;;;;;3.80;2.37;;;;;;;;;;5051778;28;20772;-80
2021/07/07 03:01:03;;;;;;;9.83;3.50;;;;;;;;;;5053308;28;20408;-80
2021/07/07 03:03:29;;;;;;;9.23;4.07;;;;;;;;;;5052732;28;20415;-80
2021/07/07 03:05:56;;;;;;;6.60;4.10;;;;;;;;;;5053018;28;20933;-79
2021/07/07 03:08:23;;;;;;;6.20;3.17;;;;;;;;;;5052793;28;20415;-80
2021/07/07 03:10:50;;;;;;;6.70;3.30;;;;;;;;;;5051863;28;20928;-79
2021/07/07 03:13:16;;;;;;;7.43;3.03;;;;;;;;;;5056755;28;20412;-79
2021/07/07 03:15:42;;;;;;;5.93;3.30;;;;;;;;;;5056650;28;20432;-79
2021/07/07 03:18:09;;;;;;;9.20;3.70;;;;;;;;;;5056798;28;20408;-80
2021/07/07 03:20:36;;;;;;;12.00;3.10;;;;;;;;;;5056780;28;20463;-80
2021/07/07 03:23:03;;;;;;;7.23;3.07;;;;;;;;;;5056536;28;20412;-79
2021/07/07 03:25:29;;;;;;;4.57;2.90;;;;;;;;;;5056674;28;20784;-78
2021/07/07 03:27:55;;;;;;;5.73;3.07;;;;;;;;;;5056716;28;20415;-79
2021/07/07 03:30:21;;;;;;;5.77;2.90;;;;;;;;;;5056667;28;20420;-77
2021/07/07 03:32:47;;;;;;;9.10;3.10;;;;;;;;;;5056354;28;20404;-79
2021/07/07 03:35:13;;;;;;;9.53;2.90;;;;;;;;;;5056744;28;20523;-81
2021/07/07 03:37:40;;;;;;;7.53;3.27;;;;;;;;;;5055284;28;20447;-79
2021/07/07 03:40:06;;;;;;;15.80;3.73;;;;;;;;;;5056346;28;20466;-79
2021/07/07 03:42:32;;;;;;;8.57;3.70;;;;;;;;;;5056372;28;20908;-79
2021/07/07 03:44:58;;;;;;;10.80;3.63;;;;;;;;;;5055124;28;20470;-80
2021/07/07 03:47:25;;;;;;;7.80;3.77;;;;;;;;;;5056540;28;20450;-78
2021/07/07 03:49:51;;;;;;;8.13;3.13;;;;;;;;;;5055389;28;20492;-80
2021/07/07 03:52:17;;;;;;;5.40;3.13;;;;;;;;;;5056076;28;20386;-78
2021/07/07 03:54:43;;;;;;;8.03;3.73;;;;;;;;;;5055737;28;20431;-79
2021/07/07 03:57:09;;;;;;;8.53;3.33;;;;;;;;;;5056097;28;20498;-80
2021/07/07 03:59:35;;;;;;;7.47;3.40;;;;;;;;;;5056097;28;20550;-77
2021/07/07 04:02:01;;;;;;;13.50;4.80;;;;;;;;;;5056112;28;20427;-79
2021/07/07 04:04:27;;;;;;;5.53;2.80;;;;;;;;;;5055544;28;20945;-81
2021/07/07 04:06:58;;;;;;;8.90;2.87;;;;;;;;;;5056011;28;20400;-79
2021/07/07 04:09:28;;;;;;;12.27;3.40;;;;;;;;;;5056083;28;20416;-80
2021/07/07 04:11:54;;;;;;;9.60;3.50;;;;;;;;;;5055997;28;20415;-79
2021/07/07 04:14:23;;;;;;;11.37;3.20;;;;;;;;;;5054355;28;20432;-79
2021/07/07 04:16:55;;;;;;;9.57;3.00;;;;;;;;;;5054601;28;20412;-80
2021/07/07 04:19:21;;;;;;;10.03;3.57;;;;;;;;;;5055534;28;20480;-79
2021/07/07 04:21:47;;;;;;;6.57;3.13;;;;;;;;;;5055644;28;20900;-80
2021/07/07 04:24:14;;;;;;;9.90;3.00;;;;;;;;;;5054347;28;20444;-77
2021/07/07 04:26:40;;;;;;;8.50;3.30;;;;;;;;;;5055495;28;20439;-81
2021/07/07 04:29:06;;;;;;;8.30;3.63;;;;;;;;;;5055527;28;20419;-79
2021/07/07 04:31:33;;;;;;;5.77;3.20;;;;;;;;;;5055368;28;20460;-81
2021/07/07 04:33:59;;;;;;;7.17;4.10;;;;;;;;;;5055045;28;20439;-79
2021/07/07 04:36:25;;;;;;;5.50;2.67;;;;;;;;;;5055337;28;20465;-79
2021/07/07 04:38:51;;;;;;;6.23;3.17;;;;;;;;;;5055203;28;20661;-79
2021/07/07 04:41:17;;;;;;;9.43;3.47;;;;;;;;;;5055398;28;20427;-78
2021/07/07 04:43:43;;;;;;;12.60;4.10;;;;;;;;;;5054802;28;20773;-81
2021/07/07 04:46:09;;;;;;;9.37;3.47;;;;;;;;;;5055346;28;20565;-81
2021/07/07 04:48:35;;;;;;;9.10;3.60;;;;;;;;;;5055071;28;20923;-78
2021/07/07 04:51:01;;;;;;;5.90;3.10;;;;;;;;;;5055117;28;20422;-77
2021/07/07 04:53:27;;;;;;;7.97;3.03;;;;;;;;;;5054872;28;20495;-80
2021/07/07 04:55:53;;;;;;;4.67;2.80;;;;;;;;;;5053686;28;21000;-80
2021/07/07 04:58:19;;;;;;;5.13;2.83;;;;;;;;;;5055355;28;20419;-81
2021/07/07 05:00:45;;;;;;;9.17;3.87;;;;;;;;;;5060071;28;20471;-80
2021/07/07 05:03:11;;;;;;;9.83;3.33;;;;;;;;;;5074777;28;20386;-78
2021/07/07 05:05:37;;;;;;;5.60;2.70;;;;;;;;;;5073851;28;20534;-78
2021/07/07 05:08:04;;;;;;;9.43;2.90;;;;;;;;;;5074775;28;20888;-81
2021/07/07 05:10:31;;;;;;;7.50;2.90;;;;;;;;;;5075004;28;20757;-81
2021/07/07 05:12:58;;;;;;;7.93;3.07;;;;;;;;;;5074337;28;20781;-78
2021/07/07 05:15:24;;;;;;;9.53;2.87;;;;;;;;;;5074713;28;20405;-80
2021/07/07 05:17:50;;;;;;;6.97;3.40;;;;;;;;;;5074524;28;20432;-77
2021/07/07 05:20:17;;;;;;;8.20;2.87;;;;;;;;;;5076796;28;20425;-78
2021/07/07 05:22:44;;;;;;;3.83;2.50;;;;;;;;;;5074172;28;20411;-81
2021/07/07 05:25:13;;;;;;;5.83;2.50;;;;;;;;;;5074242;28;20919;-78
2021/07/07 05:27:39;;;;;;;4.80;2.57;;;;;;;;;;5056605;28;20788;-79
2021/07/07 05:30:06;;;;;;;5.47;2.30;;;;;;;;;;5059565;28;20539;-78
2021/07/07 05:32:33;;;;;;;15.93;3.00;;;;;;;;;;5054254;28;20448;-79
2021/07/07 05:34:59;;;;;;;8.90;3.37;;;;;;;;;;5053824;28;20439;-79
2021/07/07 05:37:25;;;;;;;4.83;2.37;;;;;;;;;;5053725;28;20394;-77
2021/07/07 05:39:52;;;;;;;3.83;2.30;;;;;;;;;;5052739;28;20450;-78
2021/07/07 05:42:19;;;;;;;5.60;2.67;;;;;;;;;;5054219;28;20749;-78
2021/07/07 05:44:45;;;;;;;6.07;2.17;;;;;;;;;;5056203;28;20414;-77
2021/07/07 05:47:12;;;;;;;3.40;2.10;;;;;;;;;;5053964;28;20414;-79
2021/07/07 05:49:38;;;;;;;9.23;2.60;;;;;;;;;;5058559;28;20746;-76
2021/07/07 05:52:04;;;;;;;5.90;2.70;;;;;;;;;;5072725;28;20872;-77
2021/07/07 05:54:31;;;;;;;7.17;2.20;;;;;;;;;;5073783;28;20423;-78
2021/07/07 05:56:57;;;;;;;5.90;3.10;;;;;;;;;;5074075;28;20443;-78
2021/07/07 05:59:23;;;;;;;6.50;2.67;;;;;;;;;;5072340;28;20466;-77
2021/07/07 06:01:49;;;;;;;4.43;1.90;;;;;;;;;;5073567;28;20377;-78
2021/07/07 06:04:15;;;;;;;5.63;2.17;;;;;;;;;;5073385;28;20936;-80
2021/07/07 06:06:41;;;;;;;5.97;2.67;;;;;;;;;;5073653;28;20395;-79
2021/07/07 06:09:07;;;;;;;9.37;2.17;;;;;;;;;;5073470;28;20410;-78
2021/07/07 06:11:33;;;;;;;5.50;2.07;;;;;;;;;;5073520;28;20407;-80
2021/07/07 06:13:59;;;;;;;5.70;3.17;;;;;;;;;;5073182;28;20427;-78
2021/07/07 06:16:25;;;;;;;5.40;2.00;;;;;;;;;;5073642;28;20506;-78
2021/07/07 06:18:52;;;;;;;4.10;2.77;;;;;;;;;;5073350;28;20444;-80
2021/07/07 06:21:18;;;;;;;8.43;2.63;;;;;;;;;;5073300;28;20457;-82
2021/07/07 06:23:44;;;;;;;4.87;2.80;;;;;;;;;;5073011;28;20473;-79
2021/07/07 06:26:10;;;;;;;6.13;2.30;;;;;;;;;;5073461;28;20406;-77
2021/07/07 06:28:36;;;;;;;5.37;2.13;;;;;;;;;;5073394;28;20559;-81
2021/07/07 06:31:02;;;;;;;5.30;2.00;;;;;;;;;;5073312;28;20407;-77
2021/07/07 06:33:29;;;;;;;8.30;2.50;;;;;;;;;;5072794;28;20431;-77
2021/07/07 06:35:55;;;;;;;8.20;2.37;;;;;;;;;;5073408;28;20818;-78
2021/07/07 06:38:21;;;;;;;3.20;1.97;;;;;;;;;;5073125;28;20401;-76
2021/07/07 06:40:48;;;;;;;4.53;2.00;;;;;;;;;;5073257;28;20462;-80
2021/07/07 06:43:14;;;;;;;6.53;2.53;;;;;;;;;;5072992;28;20419;-78
2021/07/07 06:45:40;;;;;;;7.50;2.50;;;;;;;;;;5072783;28;20431;-79
2021/07/07 06:48:10;;;;;;;7.93;2.20;;;;;;;;;;5073240;28;20778;-80
2021/07/07 06:50:36;;;;;;;4.30;1.70;;;;;;;;;;5071926;28;20460;-81
2021/07/07 06:53:03;;;;;;;3.00;1.97;;;;;;;;;;5073068;28;20393;-77
2021/07/07 06:55:29;;;;;;;6.13;2.23;;;;;;;;;;5073061;28;20457;-79
2021/07/07 06:57:55;;;;;;;5.03;2.40;;;;;;;;;;5076213;28;20390;-79
2021/07/07 07:00:22;;;;;;;11.70;2.40;;;;;;;;;;5071725;28;20536;-80
2021/07/07 07:02:48;;;;;;;8.13;2.73;;;;;;;;;;5072809;28;20469;-78
2021/07/07 07:05:16;;;;;;;3.00;2.27;;;;;;;;;;5073084;28;20917;-77
2021/07/07 07:07:42;;;;;;;4.30;2.20;;;;;;;;;;5073172;28;20407;-79
2021/07/07 07:10:09;;;;;;;4.53;1.60;;;;;;;;;;5073308;28;20770;-79
2021/07/07 07:12:35;;;;;;;4.10;2.20;;;;;;;;;;5072868;28;20418;-79
2021/07/07 07:15:04;;;;;;;7.77;2.77;;;;;;;;;;5072738;28;20445;-77
2021/07/07 07:17:30;;;;;;;4.43;2.00;;;;;;;;;;5071756;28;20485;-79
2021/07/07 07:19:56;;;;;;;8.27;2.30;;;;;;;;;;5072652;28;20464;-79
2021/07/07 07:22:22;;;;;;;9.17;2.33;;;;;;;;;;5073206;28;20425;-81
2021/07/07 07:24:50;;;;;;;4.80;2.40;;;;;;;;;;5072500;28;20429;-80
2021/07/07 07:27:16;;;;;;;3.87;2.33;;;;;;;;;;5072794;28;20411;-77
2021/07/07 07:29:42;;;;;;;6.23;2.90;;;;;;;;;;5067658;28;20407;-78
2021/07/07 07:32:08;;;;;;;5.33;2.67;;;;;;;;;;5063030;28;20525;-77
2021/07/07 07:34:35;;;;;;;9.13;2.20;;;;;;;;;;5061003;28;20459;-78
2021/07/07 07:37:04;;;;;;;4.47;2.10;;;;;;;;;;5038745;28;20906;-78
2021/07/07 07:39:40;;;;;;;3.10;2.30;;;;;;;;;;5051225;28;20797;-79
2021/07/07 07:42:07;;;;;;;4.70;2.30;;;;;;;;;;5051006;28;20390;-78
2021/07/07 07:44:33;;;;;;;3.40;2.30;;;;;;;;;;5051807;28;20501;-76
2021/07/07 07:46:59;;;;;;;6.33;2.27;;;;;;;;;;5052026;28;20385;-77
2021/07/07 07:49:26;;;;;;;7.10;2.23;;;;;;;;;;5052908;28;20425;-77
2021/07/07 07:51:52;;;;;;;5.83;2.10;;;;;;;;;;5060390;28;20388;-79
2021/07/07 07:54:18;;;;;;;6.10;2.77;;;;;;;;;;5059793;28;20435;-77
2021/07/07 07:56:44;;;;;;;4.30;2.30;;;;;;;;;;5061674;28;20427;-78
2021/07/07 07:59:11;;;;;;;3.80;2.13;;;;;;;;;;5062807;28;20525;-79
2021/07/07 08:01:37;;;;;;;3.83;1.93;;;;;;;;;;5066424;28;20422;-77
2021/07/07 08:04:03;;;;;;;7.00;2.10;;;;;;;;;;5065369;28;20444;-76
2021/07/07 08:06:29;;;;;;;10.13;2.00;;;;;;;;;;5064674;28;20385;-77
2021/07/07 08:08:56;;;;;;;2.80;1.67;;;;;;;;;;5063528;28;20423;-78
2021/07/07 08:11:22;;;;;;;5.40;1.90;;;;;;;;;;5065464;28;20399;-78
2021/07/07 08:13:48;;;;;;;4.27;1.80;;;;;;;;;;5065952;28;20426;-76
2021/07/07 08:16:14;;;;;;;4.83;1.93;;;;;;;;;;5065066;28;20404;-77
2021/07/07 08:18:40;;;;;;;6.30;1.70;;;;;;;;;;5064714;28;20415;-77
2021/07/07 08:21:06;;;;;;;3.43;1.90;;;;;;;;;;5064724;28;20419;-78
2021/07/07 08:23:33;;;;;;;4.50;2.10;;;;;;;;;;5065849;28;20914;-77
2021/07/07 08:25:59;;;;;;;3.60;1.37;;;;;;;;;;5063340;28;20434;-76
2021/07/07 08:28:25;;;;;;;5.27;1.70;;;;;;;;;;5062196;28;20408;-78
2021/07/07 08:30:51;;;;;;;3.90;1.30;;;;;;;;;;5066104;28;20465;-76
2021/07/07 08:33:17;;;;;;;5.03;1.70;;;;;;;;;;5063859;28;20410;-76
2021/07/07 08:35:43;;;;;;;5.73;1.60;;;;;;;;;;5063548;28;20427;-76
2021/07/07 08:38:10;;;;;;;3.20;1.57;;;;;;;;;;5065748;28;20789;-77
2021/07/07 08:40:36;;;;;;;3.60;1.30;;;;;;;;;;5056411;28;20460;-76
2021/07/07 08:43:02;;;;;;;6.17;1.60;;;;;;;;;;5055178;28;20804;-78
2021/07/07 08:45:29;;;;;;;4.37;1.60;;;;;;;;;;5055121;28;21027;-79
2021/07/07 08:47:55;;;;;;;3.40;1.30;;;;;;;;;;5054022;28;20443;-75
2021/07/07 08:50:26;;;;;;;5.83;1.47;;;;;;;;;;5054927;28;20408;-77
2021/07/07 08:52:52;;;;;;;5.27;1.70;;;;;;;;;;5054970;28;20542;-80
2021/07/07 08:55:19;;;;;;;3.87;1.20;;;;;;;;;;5053815;28;20432;-80
2021/07/07 08:57:45;;;;;;;4.50;1.27;;;;;;;;;;5055309;28;20412;-80
2021/07/07 09:00:20;;;;;;;6.47;2.27;;;;;;;;;;5053672;28;20455;-78
2021/07/07 09:02:47;;;;;;;5.03;1.53;;;;;;;;;;5054607;28;20407;-80
2021/07/07 09:05:13;;;;;;;2.33;1.13;;;;;;;;;;5053609;28;20435;-80
2021/07/07 09:07:40;;;;;;;3.50;1.53;;;;;;;;;;5053627;28;20408;-79
2021/07/07 09:10:06;;;;;;;4.17;1.77;;;;;;;;;;5053274;28;20494;-79
2021/07/07 09:12:35;;;;;;;1.13;1.00;;;;;;;;;;5053881;28;20414;-79
2021/07/07 09:15:05;;;;;;;2.73;1.50;;;;;;;;;;5053041;28;20479;-80
2021/07/07 09:17:44;;;;;;;3.00;1.80;;;;;;;;;;5054929;28;20408;-79
2021/07/07 09:20:19;;;;;;;4.70;1.40;;;;;;;;;;5053376;28;20463;-80
2021/07/07 09:22:46;;;;;;;3.93;1.80;;;;;;;;;;5054265;28;20500;-79
2021/07/07 09:25:14;;;;;;;3.60;1.50;;;;;;;;;;5054507;28;20432;-79
2021/07/07 09:27:40;;;;;;;4.67;1.87;;;;;;;;;;5054530;28;20423;-79
2021/07/07 09:30:08;;;;;;;4.80;1.80;;;;;;;;;;5054373;28;20418;-80
2021/07/07 09:32:40;;;;;;;10.63;1.83;;;;;;;;;;5054216;28;20404;-80
2021/07/07 09:35:06;;;;;;;7.33;2.70;;;;;;;;;;5053889;28;20435;-79
2021/07/07 09:37:36;;;;;;;3.77;1.40;;;;;;;;;;5052963;28;20435;-79
2021/07/07 09:40:03;;;;;;;3.80;1.40;;;;;;;;;;5054158;28;20946;-79
2021/07/07 09:42:30;;;;;;;7.57;2.07;;;;;;;;;;5052884;28;20416;-80
2021/07/07 09:44:59;;;;;;;4.50;1.70;;;;;;;;;;5053581;28;20792;-80
2021/07/07 09:47:28;;;;;;;2.23;1.60;;;;;;;;;;5036440;28;20447;-80
2021/07/07 09:49:54;;;;;;;3.50;1.97;;;;;;;;;;5054232;28;20487;-80
2021/07/07 09:52:25;;;;;;;5.20;1.63;;;;;;;;;;5054000;28;20423;-79
2021/07/07 09:54:51;;;;;;;5.30;1.70;;;;;;;;;;5053547;28;20443;-80
2021/07/07 09:57:18;;;;;;;3.17;1.30;;;;;;;;;;5052583;28;20416;-79
2021/07/07 09:59:44;;;;;;;2.57;1.10;;;;;;;;;;5054646;28;20996;-79
2021/07/07 10:02:10;;;;;;;6.80;1.57;;;;;;;;;;5052439;28;20955;-79
2021/07/07 10:04:42;;;;;;;1.43;1.23;;;;;;;;;;5051862;28;20440;-77
2021/07/07 10:07:08;;;;;;;6.10;1.30;;;;;;;;;;5051813;28;20447;-81
2021/07/07 10:09:35;;;;;;;2.67;1.30;;;;;;;;;;5052074;28;20502;-80
2021/07/07 10:12:02;;;;;;;2.60;1.40;;;;;;;;;;5052128;28;20431;-79
2021/07/07 10:14:28;;;;;;;3.40;1.60;;;;;;;;;;5051142;28;20783;-78
2021/07/07 10:16:54;;;;;;;5.40;1.40;;;;;;;;;;5052332;28;20779;-80
2021/07/07 10:19:21;;;;;;;2.17;1.10;;;;;;;;;;5050579;28;20567;-80
2021/07/07 10:21:47;;;;;;;3.53;1.27;;;;;;;;;;5051441;28;20478;-80
2021/07/07 10:24:13;;;;;;;4.63;1.80;;;;;;;;;;5052049;28;20446;-79
2021/07/07 10:26:40;;;;;;;5.47;1.30;;;;;;;;;;5057992;28;20428;-79
2021/07/07 10:29:06;;;;;;;3.20;1.40;;;;;;;;;;5051456;28;20428;-81
2021/07/07 10:31:49;;;;;;;1.60;1.10;;;;;;;;;;5051955;28;20427;-80
2021/07/07 10:34:16;;;;;;;4.23;1.63;;;;;;;;;;5051344;28;20450;-80
2021/07/07 10:36:43;;;;;;;2.27;1.30;;;;;;;;;;5051650;28;20439;-79
2021/07/07 10:39:10;;;;;;;3.17;1.30;;;;;;;;;;5050033;28;20823;-80
2021/07/07 10:41:46;;;;;;;2.07;1.00;;;;;;;;;;5052110;28;20539;-81
2021/07/07 10:44:12;;;;;;;2.60;1.17;;;;;;;;;;5050619;28;20481;-80
2021/07/07 10:46:52;;;;;;;2.47;1.20;;;;;;;;;;5050645;28;20435;-80
2021/07/07 10:49:38;;;;;;;1.90;1.17;;;;;;;;;;5052837;28;20862;-79
2021/07/07 10:52:05;;;;;;;2.70;1.23;;;;;;;;;;5047011;28;20427;-79
2021/07/07 10:54:40;;;;;;;2.30;1.13;;;;;;;;;;5051817;28;20440;-79
2021/07/07 10:57:10;;;;;;;2.27;1.23;;;;;;;;;;5050451;28;20423;-81
2021/07/07 10:59:45;;;;;;;3.47;1.27;;;;;;;;;;5055715;28;20548;-81
2021/07/07 11:02:18;;;;;;;2.00;1.27;;;;;;;;;;5069209;28;20521;-82
2021/07/07 11:04:48;;;;;;;4.40;1.43;;;;;;;;;;5071946;28;20971;-82
2021/07/07 11:07:33;;;;;;;6.50;1.57;;;;;;;;;;5071939;28;20829;-82
2021/07/07 11:09:59;;;;;;;1.53;1.00;;;;;;;;;;5071538;28;20441;-81
2021/07/07 11:12:41;;;;;;;3.30;1.30;;;;;;;;;;5072135;28;20434;-81
2021/07/07 11:15:11;;;;;;;3.33;1.33;;;;;;;;;;5069566;28;20459;-81
2021/07/07 11:17:37;;;;;;;6.43;1.47;;;;;;;;;;5053925;28;20434;-79
2021/07/07 11:20:07;;;;;;;3.80;1.27;;;;;;;;;;5069353;28;20458;-80
2021/07/07 11:22:33;;;;;;;5.40;1.67;;;;;;;;;;5070233;28;20441;-81
2021/07/07 11:25:03;;;;;;;5.33;1.33;;;;;;;;;;5070948;28;20500;-79
2021/07/07 11:27:30;;;;;;;6.00;1.87;;;;;;;;;;5071388;28;20422;-82
2021/07/07 11:29:56;;;;;;;4.30;1.20;;;;;;;;;;5069638;28;20510;-79
2021/07/07 11:32:30;;;;;;;6.03;1.63;;;;;;;;;;5072536;28;20465;-79
2021/07/07 11:34:57;;;;;;;2.90;1.57;;;;;;;;;;5074044;28;20441;-80
2021/07/07 11:37:25;;;;;;;5.07;1.53;;;;;;;;;;5075192;28;20431;-80
2021/07/07 11:40:06;;;;;;;7.27;1.83;;;;;;;;;;5074666;28;21012;-80
2021/07/07 11:42:32;;;;;;;6.63;1.93;;;;;;;;;;5074660;28;20502;-80
2021/07/07 11:44:58;;;;;;;6.43;1.88;;;;;;;;;;5072393;28;20414;-81
2021/07/07 11:47:25;;;;;;;6.93;1.93;;;;;;;;;;5073438;28;20238;-80
2021/07/07 11:50:02;;;;;;;5.67;1.70;;;;;;;;;;5072898;28;20468;-80
2021/07/07 11:52:28;;;;;;;7.67;1.73;;;;;;;;;;5074946;28;20426;-80
2021/07/07 11:54:54;;;;;;;4.23;2.10;;;;;;;;;;5072968;28;20524;-79
2021/07/07 11:57:21;;;;;;;3.57;1.60;;;;;;;;;;5074405;28;20805;-79
2021/07/07 11:59:52;;;;;;;4.23;1.70;;;;;;;;;;5071226;28;20459;-79
2021/07/07 12:02:18;;;;;;;6.93;1.40;;;;;;;;;;5064202;28;20427;-79
2021/07/07 12:04:47;;;;;;;4.77;1.70;;;;;;;;;;5073067;28;21345;-80
2021/07/07 12:07:13;;;;;;;3.73;1.70;;;;;;;;;;5074878;28;20818;-79
2021/07/07 12:09:39;;;;;;;3.13;1.47;;;;;;;;;;5074256;28;20430;-80
2021/07/07 12:12:08;;;;;;;3.23;1.40;;;;;;;;;;5073796;28;20461;-79
2021/07/07 12:14:35;;;;;;;5.53;1.87;;;;;;;;;;5072801;28;20474;-80
2021/07/07 12:17:03;;;;;;;4.40;1.80;;;;;;;;;;5073113;28;20930;-80
2021/07/07 12:19:29;;;;;;;2.80;1.50;;;;;;;;;;5073170;28;20516;-80
2021/07/07 12:22:00;;;;;;;5.07;1.57;;;;;;;;;;5073064;28;20488;-79
2021/07/07 12:24:29;;;;;;;4.43;1.67;;;;;;;;;;5073491;28;20431;-79
2021/07/07 12:26:55;;;;;;;3.70;1.50;;;;;;;;;;5073727;28;20411;-79
2021/07/07 12:29:28;;;;;;;3.37;1.40;;;;;;;;;;5072690;28;20423;-79
2021/07/07 12:32:14;;;;;;;3.00;1.63;;;;;;;;;;5074215;28;20903;-79
2021/07/07 12:34:45;;;;;;;3.10;1.47;;;;;;;;;;5071564;28;20879;-79
2021/07/07 12:37:12;;;;;;;3.13;1.40;;;;;;;;;;5073634;28;20422;-79
2021/07/07 12:39:55;;;;;;;4.87;1.80;;;;;;;;;;5074057;28;20992;-79
2021/07/07 12:42:31;;;;;;;3.10;1.50;;;;;;;;;;5073037;28;20437;-79
2021/07/07 12:45:13;;;;;;;4.23;1.70;;;;;;;;;;5072943;28;20467;-79
2021/07/07 12:47:43;;;;;;;4.20;1.67;;;;;;;;;;5073913;28;20465;-79
2021/07/07 12:50:19;;;;;;;5.50;1.57;;;;;;;;;;5071161;28;20468;-79
2021/07/07 12:52:46;;;;;;;3.03;1.70;;;;;;;;;;5072380;28;20829;-79
2021/07/07 12:55:13;;;;;;;4.40;1.43;;;;;;;;;;5055604;28;20451;-78
2021/07/07 12:57:42;;;;;;;3.53;1.93;;;;;;;;;;5073182;28;20423;-79
2021/07/07 13:00:09;;;;;;;4.70;1.70;;;;;;;;;;5073005;28;20458;-79
2021/07/07 13:03:08;;;;;;;2.77;1.30;;;;;;;;;;5062562;28;20432;-79
2021/07/07 13:05:36;;;;;;;3.60;1.40;;;;;;;;;;5048930;28;21001;-79
2021/07/07 13:08:03;;;;;;;2.80;1.50;;;;;;;;;;5073552;28;20411;-79
2021/07/07 13:10:33;;;;;;;2.90;1.37;;;;;;;;;;5073018;28;20525;-79
2021/07/07 13:13:39;;;;;;;1.40;1.10;;;;;;;;;;5072506;28;20468;-79
2021/07/07 13:16:11;;;;;;;2.57;1.27;;;;;;;;;;5032928;28;20466;-79
2021/07/07 13:19:04;;;;;;;2.33;1.00;;;;;;;;;;5033306;28;20446;-79
2021/07/07 13:21:35;;;;;;;2.37;1.10;;;;;;;;;;5063755;28;20423;-80
2021/07/07 13:24:03;;;;;;;1.87;1.53;;;;;;;;;;5072647;28;20415;-79
2021/07/07 13:26:37;;;;;;;2.67;1.50;;;;;;;;;;5070917;28;20465;-78
2021/07/07 13:29:16;;;;;;;4.50;1.40;;;;;;;;;;5073326;28;20421;-79
2021/07/07 13:31:42;;;;;;;7.10;1.53;;;;;;;;;;5072770;28;20419;-79
2021/07/07 13:34:08;;;;;;;5.03;1.40;;;;;;;;;;5071924;28;20439;-79
2021/07/07 13:36:35;;;;;;;3.23;1.57;;;;;;;;;;5072202;28;20883;-79
2021/07/07 13:39:05;;;;;;;4.03;1.33;;;;;;;;;;5072636;28;20458;-79
2021/07/07 13:41:31;;;;;;;3.03;1.60;;;;;;;;;;5071987;28;20506;-81
2021/07/07 13:43:57;;;;;;;3.13;1.40;;;;;;;;;;5072957;28;20778;-79
2021/07/07 13:46:23;;;;;;;1.90;1.13;;;;;;;;;;5073989;28;20964;-79
2021/07/07 13:48:49;;;;;;;3.90;1.27;;;;;;;;;;5074053;28;20435;-79
2021/07/07 13:51:15;;;;;;;3.17;1.33;;;;;;;;;;5072981;28;20927;-79
2021/07/07 13:53:42;;;;;;;2.30;1.40;;;;;;;;;;5073813;28;20487;-79
2021/07/07 13:56:08;;;;;;;5.27;1.33;;;;;;;;;;5073167;28;20490;-79
2021/07/07 13:58:34;;;;;;;1.43;1.10;;;;;;;;;;5073823;28;20923;-79
2021/07/07 14:01:00;;;;;;;2.47;1.10;;;;;;;;;;5073776;28;20517;-79
2021/07/07 14:03:26;;;;;;;3.83;1.53;;;;;;;;;;5073556;28;20419;-79
2021/07/07 14:05:52;;;;;;;5.10;1.43;;;;;;;;;;5075615;28;20450;-79
2021/07/07 14:08:18;;;;;;;2.90;1.17;;;;;;;;;;5073843;28;20730;-80
2021/07/07 14:10:44;;;;;;;1.10;1.00;;;;;;;;;;5073800;28;20801;-80
2021/07/07 14:13:10;;;;;;;2.10;0.80;;;;;;;;;;5073543;28;20418;-79
2021/07/07 14:15:36;;;;;;;1.00;0.83;;;;;;;;;;5073535;28;20431;-79
2021/07/07 14:18:02;;;;;;;2.63;1.00;;;;;;;;;;5073999;28;20486;-79
2021/07/07 14:20:29;;;;;;;1.83;0.90;;;;;;;;;;5074220;28;20592;-80
2021/07/07 14:22:55;;;;;;;1.33;0.93;;;;;;;;;;5073107;28;20966;-79
2021/07/07 14:25:21;;;;;;;1.60;1.40;;;;;;;;;;5073513;28;20426;-79
2021/07/07 14:27:47;;;;;;;1.00;0.90;;;;;;;;;;5073467;28;20486;-79
2021/07/07 14:30:13;;;;;;;5.43;1.20;;;;;;;;;;5055680;28;20430;-78
2021/07/07 14:32:39;;;;;;;4.70;1.07;;;;;;;;;;5073333;28;20907;-78
2021/07/07 14:35:06;;;;;;;1.90;1.00;;;;;;;;;;5072953;28;20460;-78
2021/07/07 14:37:32;;;;;;;2.30;1.10;;;;;;;;;;5073141;28;20533;-78
2021/07/07 14:39:58;;;;;;;1.20;0.90;;;;;;;;;;5073215;28;20542;-79
2021/07/07 14:42:24;;;;;;;1.50;1.20;;;;;;;;;;5071971;28;20990;-81
2021/07/07 14:44:50;;;;;;;2.23;1.20;;;;;;;;;;5072845;28;20522;-81